| time (UTC) | temp F | wind direction | speed MPH | gust MPH | rain 1hr in | rain 24hr in | rain mn in | humidity % | barometer mb |
| 20260903033818 | 52 | 107 | 4.0 | 5.0 | 0.00 | 0.00 | 0.00 | 60 | 1015.5 |
| 20260903033313 | 52 | 96 | 5.0 | 7.0 | 0.00 | 0.00 | 0.00 | 65 | 1015.5 |
| 20260903032807 | 51 | 165 | 0.0 | 3.0 | 0.00 | 0.00 | 0.00 | 66 | 1015.4 |
| 20260903032305 | 52 | 32 | 2.0 | 4.0 | 0.00 | 0.00 | 0.00 | 66 | 1015.9 |
| 20260903031758 | 51 | 77 | 0.0 | 7.0 | 0.00 | 0.00 | 0.00 | 68 | 1015.9 |
| 20260903031257 | 51 | 99 | 0.0 | 4.0 | 0.00 | 0.00 | 0.00 | 69 | 1015.6 |
| 20260903030754 | 51 | 66 | 0.0 | 4.0 | 0.00 | 0.00 | 0.00 | 68 | 1015.9 |
| 20260903030249 | 51 | 97 | 3.0 | 6.0 | 0.00 | 0.00 | 0.00 | 67 | 1015.7 |
| 20260903025744 | 50 | 100 | 4.0 | 5.0 | 0.00 | 0.00 | 0.00 | 70 | 1015.7 |
| 20260903025240 | 51 | 94 | 2.0 | 5.0 | 0.00 | 0.00 | 0.00 | 69 | 1015.5 |
| 20260903024735 | 51 | 105 | 3.0 | 4.0 | 0.00 | 0.00 | 0.00 | 70 | 1015.4 |
| 20260903024234 | 51 | 93 | 4.0 | 4.0 | 0.00 | 0.00 | 0.00 | 69 | 1015.6 |
| 20260903023730 | 52 | 90 | 4.0 | 8.0 | 0.00 | 0.00 | 0.00 | 66 | 1015.5 |
| 20260903023225 | 52 | 99 | 4.0 | 5.0 | 0.00 | 0.00 | 0.00 | 67 | 1015.6 |
| 20260903022725 | 51 | 71 | 1.0 | 7.0 | 0.00 | 0.00 | 0.00 | 69 | 1015.6 |
| 20260903022224 | 52 | 90 | 3.0 | 3.0 | 0.00 | 0.00 | 0.00 | 68 | 1015.4 |
| 20260903021718 | 52 | 105 | 1.0 | 3.0 | 0.00 | 0.00 | 0.00 | 67 | 1015.5 |
| 20260903021213 | 53 | 96 | 3.0 | 5.0 | 0.00 | 0.00 | 0.00 | 66 | 1015.6 |
| 20260903020708 | 53 | 85 | 0.0 | 3.0 | 0.00 | 0.00 | 0.00 | 66 | 1015.5 |
| 20260903020203 | 52 | 84 | 2.0 | 4.0 | 0.00 | 0.00 | 0.00 | 67 | 1015.4 |
| 20260903015658 | 51 | 78 | 4.0 | 5.0 | 0.00 | 0.00 | 0.00 | 74 | 1015.5 |
| 20260903015154 | 53 | 81 | 3.0 | 4.0 | 0.00 | 0.00 | 0.00 | 67 | 1015.6 |
| 20260903014654 | 53 | 82 | 1.0 | 2.0 | 0.00 | 0.00 | 0.00 | 66 | 1015.5 |
| 20260903014148 | 53 | 90 | 2.0 | 3.0 | 0.00 | 0.00 | 0.00 | 65 | 1015.5 |
| 20260903013642 | 55 | 94 | 3.0 | 3.0 | 0.00 | 0.00 | 0.00 | 63 | 1015.4 |
| 20260903013137 | 56 | 32 | 0.0 | 3.0 | 0.00 | 0.00 | 0.00 | 59 | 1015.6 |
| 20260903012636 | 57 | 66 | 1.0 | 2.0 | 0.00 | 0.00 | 0.00 | 53 | 1015.5 |
| 20260903012135 | 59 | 157 | 0.0 | 0.0 | 0.00 | 0.00 | 0.00 | 51 | 1015.5 |
| 20260903011634 | 59 | 334 | 0.0 | 0.0 | 0.00 | 0.00 | 0.00 | 50 | 1015.5 |
| 20260903011129 | 60 | 245 | 2.0 | 4.0 | 0.00 | 0.00 | 0.00 | 48 | 1015.5 |
| 20260903010625 | 61 | 278 | 1.0 | 2.0 | 0.00 | 0.00 | 0.00 | 49 | 1015.4 |
| 20260903010123 | 63 | 303 | 0.0 | 4.0 | 0.00 | 0.00 | 0.00 | 47 | 1015.4 |
| 20260903005618 | 63 | 236 | 2.0 | 3.0 | 0.00 | 0.00 | 0.00 | 46 | 1015.3 |
| 20260903005114 | 63 | 227 | 3.0 | 3.0 | 0.00 | 0.00 | 0.00 | 44 | 1015.3 |
| 20260903004614 | 64 | 247 | 5.0 | 7.0 | 0.00 | 0.00 | 0.00 | 41 | 1015.4 |
| 20260903004108 | 66 | 295 | 2.0 | 6.0 | 0.00 | 0.00 | 0.00 | 41 | 1015.3 |
| 20260903003604 | 67 | 277 | 4.0 | 4.0 | 0.00 | 0.00 | 0.00 | 39 | 1015.1 |
| 20260903003059 | 66 | 275 | 2.0 | 4.0 | 0.00 | 0.00 | 0.00 | 41 | 1015.4 |
| 20260903002554 | 65 | 348 | 1.0 | 2.0 | 0.00 | 0.00 | 0.00 | 47 | 1015.4 |
| 20260903002049 | 62 | 308 | 2.0 | 2.0 | 0.00 | 0.00 | 0.00 | 54 | 1015.3 |
| 20260903001548 | 62 | 90 | 0.0 | 3.0 | 0.00 | 0.00 | 0.00 | 58 | 1015.3 |
| 20260903001043 | 62 | 86 | 3.0 | 3.0 | 0.00 | 0.00 | 0.00 | 54 | 1015.1 |
| 20260903000539 | 63 | 105 | 1.0 | 3.0 | 0.00 | 0.00 | 0.00 | 50 | 1015.3 |
| 20260903000038 | 63 | 335 | 3.0 | 3.0 | 0.00 | 0.00 | 0.00 | 53 | 1015.1 |
| 20260902235531 | 63 | 278 | 1.0 | 3.0 | 0.00 | 0.00 | 0.00 | 46 | 1015.1 |
| 20260902235026 | 63 | 263 | 1.0 | 5.0 | 0.00 | 0.00 | 0.00 | 45 | 1015.1 |
| 20260902234526 | 63 | 258 | 0.0 | 4.0 | 0.00 | 0.00 | 0.00 | 45 | 1014.9 |
| 20260902234024 | 63 | 278 | 2.0 | 4.0 | 0.00 | 0.00 | 0.00 | 46 | 1014.9 |
| 20260902233520 | 63 | 247 | 2.0 | 8.0 | 0.00 | 0.00 | 0.00 | 46 | 1014.9 |
| 20260902233014 | 63 | 251 | 3.0 | 7.0 | 0.00 | 0.00 | 0.00 | 47 | 1014.7 |
| 20260902232514 | 64 | 251 | 1.0 | 7.0 | 0.00 | 0.00 | 0.00 | 46 | 1014.9 |
| 20260902232008 | 65 | 315 | 3.0 | 5.0 | 0.00 | 0.00 | 0.00 | 45 | 1014.7 |
| 20260902231503 | 66 | 319 | 2.0 | 10.0 | 0.00 | 0.00 | 0.00 | 42 | 1014.5 |
| 20260902230958 | 66 | 301 | 2.0 | 7.0 | 0.00 | 0.00 | 0.00 | 45 | 1014.4 |
| 20260902230452 | 67 | 237 | 2.0 | 7.0 | 0.00 | 0.00 | 0.00 | 44 | 1014.5 |
| 20260902225951 | 66 | 330 | 0.0 | 8.0 | 0.00 | 0.00 | 0.00 | 46 | 1014.3 |
| 20260902225446 | 66 | 299 | 4.0 | 7.0 | 0.00 | 0.00 | 0.00 | 43 | 1014.5 |
| 20260902224945 | 67 | 348 | 1.0 | 6.0 | 0.00 | 0.00 | 0.00 | 42 | 1014.4 |
| 20260902224445 | 66 | 292 | 3.0 | 6.0 | 0.00 | 0.00 | 0.00 | 42 | 1014.4 |
| 20260902223942 | 67 | 274 | 5.0 | 7.0 | 0.00 | 0.00 | 0.00 | 41 | 1014.3 |
| 20260902223437 | 68 | 198 | 1.0 | 7.0 | 0.00 | 0.00 | 0.00 | 39 | 1014.3 |
| 20260902222936 | 68 | 282 | 2.0 | 6.0 | 0.00 | 0.00 | 0.00 | 42 | 1014.3 |
| 20260902222434 | 68 | 213 | 4.0 | 8.0 | 0.00 | 0.00 | 0.00 | 40 | 1014.2 |
| 20260902221929 | 68 | 226 | 6.0 | 15.0 | 0.00 | 0.00 | 0.00 | 39 | 1014.2 |
| 20260902221428 | 69 | 219 | 11.0 | 13.0 | 0.00 | 0.00 | 0.00 | 38 | 1014.4 |
| 20260902220924 | 70 | 228 | 7.0 | 9.0 | 0.00 | 0.00 | 0.00 | 38 | 1014.2 |
| 20260902220423 | 71 | 247 | 7.0 | 13.0 | 0.00 | 0.00 | 0.00 | 38 | 1014.3 |
| 20260902215919 | 71 | 189 | 7.0 | 9.0 | 0.00 | 0.00 | 0.00 | 37 | 1014.3 |
| 20260902215414 | 69 | 216 | 5.0 | 7.0 | 0.00 | 0.00 | 0.00 | 39 | 1014.3 |
| 20260902214910 | 68 | 247 | 8.0 | 12.0 | 0.00 | 0.00 | 0.00 | 39 | 1014.2 |
| 20260902214408 | 69 | 265 | 4.0 | 15.0 | 0.00 | 0.00 | 0.00 | 37 | 1014.3 |
| 20260902213903 | 70 | 224 | 9.0 | 14.0 | 0.00 | 0.00 | 0.00 | 38 | 1014.3 |
| 20260902213400 | 69 | 210 | 7.0 | 10.0 | 0.00 | 0.00 | 0.00 | 40 | 1014.3 |
| 20260902212858 | 69 | 243 | 7.0 | 15.0 | 0.00 | 0.00 | 0.00 | 38 | 1014.3 |
| 20260902212354 | 69 | 243 | 3.0 | 12.0 | 0.00 | 0.00 | 0.00 | 37 | 1014.3 |
| 20260902211850 | 70 | 253 | 6.0 | 13.0 | 0.00 | 0.00 | 0.00 | 40 | 1014.4 |
| 20260902211346 | 69 | 245 | 5.0 | 15.0 | 0.00 | 0.00 | 0.00 | 38 | 1014.4 |
| 20260902210840 | 69 | 227 | 3.0 | 15.0 | 0.00 | 0.00 | 0.00 | 39 | 1014.4 |
| 20260902210335 | 69 | 199 | 4.0 | 12.0 | 0.00 | 0.00 | 0.00 | 39 | 1014.3 |
| 20260902205833 | 70 | 210 | 12.0 | 15.0 | 0.00 | 0.00 | 0.00 | 38 | 1014.4 |
| 20260902205328 | 69 | 198 | 7.0 | 15.0 | 0.00 | 0.00 | 0.00 | 40 | 1014.7 |
| 20260902204824 | 70 | 218 | 10.0 | 20.0 | 0.00 | 0.00 | 0.00 | 38 | 1014.7 |
| 20260902204318 | 70 | 206 | 16.0 | 20.0 | 0.00 | 0.00 | 0.00 | 37 | 1014.5 |
| 20260902203814 | 72 | 178 | 6.0 | 16.0 | 0.00 | 0.00 | 0.00 | 38 | 1014.5 |
| 20260902203309 | 71 | 184 | 11.0 | 17.0 | 0.00 | 0.00 | 0.00 | 37 | 1014.3 |
| 20260902202808 | 72 | 203 | 15.0 | 20.0 | 0.00 | 0.00 | 0.00 | 38 | 1014.3 |
| 20260902202306 | 71 | 220 | 9.0 | 20.0 | 0.00 | 0.00 | 0.00 | 40 | 1014.2 |
| 20260902201801 | 71 | 220 | 3.0 | 18.0 | 0.00 | 0.00 | 0.00 | 40 | 1014.3 |
| 20260902201300 | 70 | 193 | 13.0 | 28.0 | 0.00 | 0.00 | 0.00 | 40 | 1014.2 |
| 20260902200755 | 70 | 175 | 6.0 | 24.0 | 0.00 | 0.00 | 0.00 | 38 | 1014.3 |
| 20260902200251 | 71 | 186 | 7.0 | 19.0 | 0.00 | 0.00 | 0.00 | 41 | 1014.1 |
| 20260902195746 | 69 | 181 | 7.0 | 20.0 | 0.00 | 0.00 | 0.00 | 43 | 1014.3 |
| 20260902195245 | 67 | 186 | 5.0 | 17.0 | 0.00 | 0.00 | 0.00 | 41 | 1014.3 |
| 20260902194740 | 68 | 215 | 4.0 | 22.0 | 0.00 | 0.00 | 0.00 | 43 | 1014.2 |
| 20260902194235 | 69 | 208 | 14.0 | 17.0 | 0.00 | 0.00 | 0.00 | 43 | 1014.3 |
| 20260902193731 | 69 | 197 | 6.0 | 23.0 | 0.00 | 0.00 | 0.00 | 42 | 1014.2 |
| 20260902193226 | 70 | 244 | 18.0 | 22.0 | 0.00 | 0.00 | 0.00 | 42 | 1014.2 |
| 20260902192725 | 67 | 215 | 6.0 | 12.0 | 0.00 | 0.00 | 0.00 | 47 | 1014.4 |
| 20260902192224 | 67 | 156 | 7.0 | 16.0 | 0.00 | 0.00 | 0.00 | 46 | 1014.4 |
| 20260902191719 | 67 | 202 | 5.0 | 21.0 | 0.00 | 0.00 | 0.00 | 46 | 1014.4 |
| 20260902191213 | 66 | 215 | 9.0 | 17.0 | 0.00 | 0.00 | 0.00 | 45 | 1014.5 |
| 20260902190708 | 67 | 197 | 4.0 | 12.0 | 0.00 | 0.00 | 0.00 | 45 | 1014.7 |
| 20260902190203 | 68 | 206 | 11.0 | 16.0 | 0.00 | 0.00 | 0.00 | 44 | 1014.7 |
| 20260902185659 | 68 | 210 | 9.0 | 18.0 | 0.00 | 0.00 | 0.00 | 46 | 1014.8 |
| 20260902185155 | 66 | 159 | 10.0 | 17.0 | 0.00 | 0.00 | 0.00 | 47 | 1014.8 |
| 20260902184649 | 67 | 214 | 19.0 | 23.0 | 0.00 | 0.00 | 0.00 | 46 | 1014.9 |
| 20260902184144 | 66 | 204 | 17.0 | 22.0 | 0.00 | 0.00 | 0.00 | 47 | 1014.9 |
| 20260902183640 | 66 | 180 | 2.0 | 21.0 | 0.00 | 0.00 | 0.00 | 46 | 1014.7 |
| 20260902183137 | 67 | 187 | 5.0 | 15.0 | 0.00 | 0.00 | 0.00 | 45 | 1014.5 |
| 20260902182633 | 67 | 223 | 5.0 | 22.0 | 0.00 | 0.00 | 0.00 | 43 | 1014.5 |
| 20260902182130 | 69 | 228 | 16.0 | 17.0 | 0.00 | 0.00 | 0.00 | 43 | 1014.4 |
| 20260902181625 | 69 | 209 | 7.0 | 15.0 | 0.00 | 0.00 | 0.00 | 43 | 1014.5 |
| 20260902181124 | 71 | 163 | 15.0 | 17.0 | 0.00 | 0.00 | 0.00 | 42 | 1014.7 |
| 20260902180619 | 71 | 213 | 13.0 | 15.0 | 0.00 | 0.00 | 0.00 | 44 | 1014.5 |
| 20260902180116 | 70 | 198 | 5.0 | 16.0 | 0.00 | 0.00 | 0.00 | 42 | 1014.9 |
| 20260902175615 | 69 | 206 | 13.0 | 22.0 | 0.00 | 0.00 | 0.00 | 42 | 1014.9 |
| 20260902175110 | 69 | 182 | 7.0 | 20.0 | 0.00 | 0.00 | 0.00 | 45 | 1014.9 |
| 20260902174606 | 68 | 220 | 16.0 | 21.0 | 0.00 | 0.00 | 0.00 | 47 | 1014.8 |
| 20260902174101 | 69 | 230 | 13.0 | 16.0 | 0.00 | 0.00 | 0.00 | 48 | 1014.8 |
| 20260902173556 | 68 | 222 | 8.0 | 17.0 | 0.00 | 0.00 | 0.00 | 48 | 1014.8 |
| 20260902173051 | 68 | 211 | 9.0 | 13.0 | 0.00 | 0.00 | 0.00 | 49 | 1014.8 |
| 20260902172545 | 66 | 162 | 10.0 | 16.0 | 0.00 | 0.00 | 0.00 | 52 | 1014.8 |
| 20260902172040 | 66 | 151 | 9.0 | 16.0 | 0.00 | 0.00 | 0.00 | 52 | 1015.1 |
| 20260902171536 | 67 | 184 | 8.0 | 23.0 | 0.00 | 0.00 | 0.00 | 45 | 1014.9 |
| 20260902171031 | 68 | 197 | 8.0 | 19.0 | 0.00 | 0.00 | 0.00 | 47 | 1014.9 |
| 20260902170526 | 69 | 174 | 9.0 | 16.0 | 0.00 | 0.00 | 0.00 | 46 | 1014.9 |
| 20260902170022 | 69 | 231 | 3.0 | 15.0 | 0.00 | 0.00 | 0.00 | 46 | 1014.8 |
| 20260902165521 | 67 | 206 | 8.0 | 29.0 | 0.00 | 0.00 | 0.00 | 45 | 1014.9 |
| 20260902165016 | 68 | 245 | 10.0 | 19.0 | 0.00 | 0.00 | 0.00 | 48 | 1015.0 |
| 20260902164511 | 66 | 227 | 16.0 | 17.0 | 0.00 | 0.00 | 0.00 | 49 | 1014.9 |
| 20260902164010 | 66 | 239 | 6.0 | 15.0 | 0.00 | 0.00 | 0.00 | 51 | 1014.9 |
| 20260902163506 | 66 | 198 | 8.0 | 21.0 | 0.00 | 0.00 | 0.00 | 47 | 1014.9 |
| 20260902163004 | 68 | 206 | 7.0 | 10.0 | 0.00 | 0.00 | 0.00 | 48 | 1014.9 |
| 20260902162458 | 68 | 200 | 7.0 | 18.0 | 0.00 | 0.00 | 0.00 | 48 | 1014.9 |
| 20260902161953 | 69 | 164 | 8.0 | 21.0 | 0.00 | 0.00 | 0.00 | 46 | 1014.7 |
| 20260902161448 | 69 | 196 | 7.0 | 20.0 | 0.00 | 0.00 | 0.00 | 47 | 1014.7 |
| 20260902160944 | 69 | 169 | 8.0 | 20.0 | 0.00 | 0.00 | 0.00 | 46 | 1014.5 |
| 20260902160439 | 69 | 213 | 12.0 | 18.0 | 0.00 | 0.00 | 0.00 | 47 | 1014.5 |
| 20260902155937 | 69 | 157 | 11.0 | 23.0 | 0.00 | 0.00 | 0.00 | 46 | 1014.7 |
| 20260902155433 | 68 | 187 | 11.0 | 22.0 | 0.00 | 0.00 | 0.00 | 45 | 1014.3 |
| 20260902154926 | 68 | 159 | 10.0 | 19.0 | 0.00 | 0.00 | 0.00 | 45 | 1014.4 |
| 20260902154422 | 68 | 158 | 11.0 | 20.0 | 0.00 | 0.00 | 0.00 | 45 | 1014.3 |
| 20260902153922 | 68 | 192 | 11.0 | 21.0 | 0.00 | 0.00 | 0.00 | 47 | 1014.5 |
| 20260902153420 | 68 | 180 | 6.0 | 16.0 | 0.00 | 0.00 | 0.00 | 48 | 1014.4 |
| 20260902152916 | 67 | 182 | 9.0 | 19.0 | 0.00 | 0.00 | 0.00 | 47 | 1014.4 |
| 20260902152412 | 68 | 147 | 13.0 | 20.0 | 0.00 | 0.00 | 0.00 | 47 | 1014.5 |
| 20260902151907 | 67 | 190 | 9.0 | 23.0 | 0.00 | 0.00 | 0.00 | 46 | 1014.3 |
| 20260902151402 | 67 | 192 | 6.0 | 18.0 | 0.00 | 0.00 | 0.00 | 48 | 1014.4 |
| 20260902150856 | 65 | 200 | 11.0 | 20.0 | 0.00 | 0.00 | 0.00 | 49 | 1014.5 |
| 20260902150353 | 66 | 164 | 9.0 | 17.0 | 0.00 | 0.00 | 0.00 | 49 | 1014.7 |
| 20260902145846 | 66 | 166 | 7.0 | 13.0 | 0.00 | 0.00 | 0.00 | 51 | 1014.8 |
| 20260902145341 | 66 | 179 | 5.0 | 15.0 | 0.00 | 0.00 | 0.00 | 50 | 1014.7 |
| 20260902144836 | 65 | 157 | 10.0 | 18.0 | 0.00 | 0.00 | 0.00 | 52 | 1014.5 |
| 20260902144332 | 64 | 147 | 10.0 | 16.0 | 0.00 | 0.00 | 0.00 | 52 | 1014.3 |
| 20260902143828 | 65 | 143 | 11.0 | 14.0 | 0.00 | 0.00 | 0.00 | 51 | 1014.4 |
| 20260902143327 | 65 | 129 | 7.0 | 17.0 | 0.00 | 0.00 | 0.00 | 52 | 1014.4 |
| 20260902142823 | 64 | 154 | 3.0 | 15.0 | 0.00 | 0.00 | 0.00 | 52 | 1014.3 |
| 20260902142319 | 64 | 163 | 6.0 | 15.0 | 0.00 | 0.00 | 0.00 | 52 | 1014.3 |
| 20260902141814 | 64 | 164 | 7.0 | 14.0 | 0.00 | 0.00 | 0.00 | 53 | 1014.3 |
| 20260902141310 | 65 | 169 | 8.0 | 16.0 | 0.00 | 0.00 | 0.00 | 52 | 1014.4 |
| 20260902140804 | 64 | 149 | 8.0 | 13.0 | 0.00 | 0.00 | 0.00 | 51 | 1014.2 |
| 20260902140300 | 63 | 177 | 3.0 | 21.0 | 0.00 | 0.00 | 0.00 | 54 | 1014.2 |
| 20260902135758 | 63 | 135 | 4.0 | 13.0 | 0.00 | 0.00 | 0.00 | 55 | 1014.3 |
| 20260902135255 | 62 | 157 | 9.0 | 12.0 | 0.00 | 0.00 | 0.00 | 56 | 1014.1 |
| 20260902134754 | 62 | 135 | 5.0 | 14.0 | 0.00 | 0.00 | 0.00 | 56 | 1014.2 |
| 20260902134250 | 63 | 153 | 9.0 | 11.0 | 0.00 | 0.00 | 0.00 | 55 | 1014.2 |
| 20260902133745 | 62 | 168 | 4.0 | 10.0 | 0.00 | 0.00 | 0.00 | 55 | 1014.2 |
| 20260902133244 | 62 | 153 | 6.0 | 11.0 | 0.00 | 0.00 | 0.00 | 56 | 1014.2 |
| 20260902132739 | 62 | 206 | 2.0 | 7.0 | 0.00 | 0.00 | 0.00 | 56 | 1014.1 |
| 20260902132235 | 62 | 196 | 3.0 | 8.0 | 0.00 | 0.00 | 0.00 | 56 | 1014.2 |
| 20260902131730 | 63 | 144 | 9.0 | 15.0 | 0.00 | 0.00 | 0.00 | 54 | 1014.1 |
| 20260902131226 | 62 | 206 | 3.0 | 11.0 | 0.00 | 0.00 | 0.00 | 57 | 1014.2 |
| 20260902130721 | 62 | 133 | 5.0 | 11.0 | 0.00 | 0.00 | 0.00 | 56 | 1014.1 |
| 20260902130216 | 62 | 146 | 6.0 | 12.0 | 0.00 | 0.00 | 0.00 | 57 | 1014.1 |
| 20260902125711 | 62 | 155 | 4.0 | 10.0 | 0.00 | 0.00 | 0.00 | 57 | 1014.1 |
| 20260902125208 | 62 | 140 | 2.0 | 17.0 | 0.00 | 0.00 | 0.00 | 55 | 1014.2 |
| 20260902124703 | 62 | 149 | 7.0 | 12.0 | 0.00 | 0.00 | 0.00 | 55 | 1013.8 |
| 20260902124158 | 62 | 151 | 10.0 | 14.0 | 0.00 | 0.00 | 0.00 | 57 | 1013.9 |
| 20260902123653 | 62 | 141 | 7.0 | 11.0 | 0.00 | 0.00 | 0.00 | 57 | 1013.9 |
| 20260902123148 | 63 | 151 | 6.0 | 17.0 | 0.00 | 0.00 | 0.00 | 55 | 1013.9 |
| 20260902122642 | 63 | 162 | 8.0 | 22.0 | 0.00 | 0.00 | 0.00 | 55 | 1013.9 |
| 20260902122138 | 61 | 129 | 8.0 | 12.0 | 0.00 | 0.00 | 0.00 | 58 | 1014.1 |
| 20260902121633 | 62 | 134 | 13.0 | 14.0 | 0.00 | 0.00 | 0.00 | 57 | 1014.2 |
| 20260902121133 | 62 | 199 | 5.0 | 13.0 | 0.00 | 0.00 | 0.00 | 57 | 1013.9 |
| 20260902120624 | 62 | 198 | 5.0 | 18.0 | 0.00 | 0.00 | 0.00 | 58 | 1014.1 |
| 20260902120120 | 63 | 137 | 8.0 | 16.0 | 0.00 | 0.00 | 0.00 | 57 | 1014.1 |
| 20260902115615 | 62 | 132 | 5.0 | 16.0 | 0.00 | 0.00 | 0.00 | 57 | 1013.9 |
| 20260902115111 | 63 | 147 | 8.0 | 17.0 | 0.00 | 0.00 | 0.00 | 57 | 1013.9 |
| 20260902114607 | 62 | 155 | 7.0 | 11.0 | 0.00 | 0.00 | 0.00 | 59 | 1014.1 |
| 20260902114106 | 63 | 145 | 15.0 | 18.0 | 0.00 | 0.00 | 0.00 | 58 | 1013.9 |
| 20260902113602 | 62 | 157 | 6.0 | 17.0 | 0.00 | 0.00 | 0.00 | 58 | 1014.1 |
| 20260902113057 | 62 | 135 | 8.0 | 12.0 | 0.00 | 0.00 | 0.00 | 58 | 1014.1 |
| 20260902112552 | 63 | 145 | 6.0 | 12.0 | 0.00 | 0.00 | 0.00 | 58 | 1014.1 |
| 20260902112049 | 63 | 180 | 4.0 | 15.0 | 0.00 | 0.00 | 0.00 | 57 | 1014.2 |
| 20260902111544 | 63 | 180 | 6.0 | 11.0 | 0.00 | 0.00 | 0.00 | 58 | 1014.3 |
| 20260902111039 | 62 | 139 | 4.0 | 8.0 | 0.00 | 0.00 | 0.00 | 58 | 1014.3 |
| 20260902110531 | 62 | 154 | 4.0 | 11.0 | 0.00 | 0.00 | 0.00 | 59 | 1014.2 |
| 20260902110026 | 62 | 146 | 7.0 | 11.0 | 0.00 | 0.00 | 0.00 | 59 | 1014.3 |
| 20260902105525 | 62 | 147 | 9.0 | 13.0 | 0.00 | 0.00 | 0.00 | 60 | 1014.2 |
| 20260902105020 | 62 | 140 | 9.0 | 11.0 | 0.00 | 0.00 | 0.00 | 61 | 1014.4 |
| 20260902104516 | 61 | 146 | 4.0 | 12.0 | 0.00 | 0.00 | 0.00 | 62 | 1014.3 |
| 20260902104010 | 60 | 125 | 9.0 | 9.0 | 0.00 | 0.00 | 0.00 | 64 | 1014.2 |
| 20260902103505 | 58 | 110 | 6.0 | 9.0 | 0.00 | 0.00 | 0.00 | 67 | 1014.2 |
| 20260902103000 | 55 | 28 | 2.0 | 2.0 | 0.00 | 0.00 | 0.00 | 72 | 1014.3 |
| 20260902102456 | 55 | 90 | 3.0 | 4.0 | 0.00 | 0.00 | 0.00 | 71 | 1014.4 |
| 20260902101953 | 55 | 114 | 0.0 | 5.0 | 0.00 | 0.00 | 0.00 | 73 | 1014.3 |
| 20260902101448 | 55 | 29 | 2.0 | 3.0 | 0.00 | 0.00 | 0.00 | 72 | 1014.5 |
| 20260902100947 | 55 | 5 | 3.0 | 3.0 | 0.00 | 0.00 | 0.00 | 72 | 1014.3 |
| 20260902100442 | 55 | 95 | 2.0 | 3.0 | 0.00 | 0.00 | 0.00 | 71 | 1014.4 |
| 20260902095941 | 55 | 246 | 0.0 | 2.0 | 0.00 | 0.00 | 0.00 | 72 | 1014.7 |
| 20260902095437 | 55 | 45 | 3.0 | 3.0 | 0.00 | 0.00 | 0.00 | 71 | 1014.5 |
| 20260902094935 | 56 | 23 | 3.0 | 3.0 | 0.00 | 0.00 | 0.00 | 71 | 1014.4 |
| 20260902094432 | 56 | 74 | 2.0 | 5.0 | 0.00 | 0.00 | 0.00 | 72 | 1014.8 |
| 20260902093926 | 58 | 81 | 4.0 | 4.0 | 0.00 | 0.00 | 0.00 | 67 | 1014.7 |
| 20260902093422 | 58 | 76 | 3.0 | 4.0 | 0.00 | 0.00 | 0.00 | 67 | 1014.7 |
| 20260902092920 | 58 | 140 | 3.0 | 4.0 | 0.00 | 0.00 | 0.00 | 67 | 1014.7 |
| 20260902092410 | 58 | 343 | 2.0 | 3.0 | 0.00 | 0.00 | 0.00 | 70 | 1014.7 |
| 20260902091905 | 57 | 19 | 10.0 | 10.0 | 0.00 | 0.00 | 0.00 | 75 | 1014.8 |
| 20260902091400 | 55 | 45 | 2.0 | 7.0 | 0.00 | 0.00 | 0.00 | 81 | 1014.7 |
| 20260902090857 | 54 | 337 | 2.0 | 5.0 | 0.00 | 0.00 | 0.00 | 83 | 1014.7 |
| 20260902090357 | 55 | 20 | 6.0 | 6.0 | 0.00 | 0.00 | 0.00 | 81 | 1014.8 |
| 20260902085855 | 56 | 93 | 3.0 | 7.0 | 0.00 | 0.00 | 0.00 | 77 | 1015.0 |
| 20260902085350 | 57 | 42 | 3.0 | 7.0 | 0.00 | 0.00 | 0.00 | 75 | 1015.1 |
| 20260902084845 | 58 | 100 | 5.0 | 5.0 | 0.00 | 0.00 | 0.00 | 72 | 1015.3 |
| 20260902084337 | 59 | 149 | 3.0 | 6.0 | 0.00 | 0.00 | 0.00 | 70 | 1015.0 |
| 20260902083832 | 59 | 183 | 2.0 | 5.0 | 0.00 | 0.00 | 0.00 | 71 | 1015.1 |
| 20260902083331 | 59 | 210 | 8.0 | 8.0 | 0.00 | 0.00 | 0.00 | 69 | 1015.6 |
| 20260902082826 | 58 | 38 | 4.0 | 12.0 | 0.00 | 0.00 | 0.00 | 72 | 1015.6 |
| 20260902082317 | 58 | 112 | 3.0 | 6.0 | 0.00 | 0.00 | 0.00 | 73 | 1015.3 |
| 20260902081813 | 58 | 81 | 2.0 | 9.0 | 0.00 | 0.00 | 0.00 | 70 | 1015.0 |
| 20260902081309 | 57 | 105 | 2.0 | 5.0 | 0.00 | 0.00 | 0.00 | 70 | 1014.9 |
| 20260902080803 | 57 | 11 | 0.0 | 3.0 | 0.00 | 0.00 | 0.00 | 71 | 1014.9 |
| 20260902080301 | 57 | 29 | 4.0 | 5.0 | 0.00 | 0.00 | 0.00 | 72 | 1015.0 |
| 20260902075759 | 59 | 23 | 1.0 | 4.0 | 0.00 | 0.00 | 0.00 | 71 | 1015.1 |
| 20260902075255 | 62 | 116 | 3.0 | 6.0 | 0.00 | 0.00 | 0.00 | 61 | 1015.3 |
| 20260902074750 | 60 | 119 | 3.0 | 6.0 | 0.00 | 0.00 | 0.00 | 65 | 1015.6 |
| 20260902074246 | 59 | 233 | 0.0 | 4.0 | 0.00 | 0.00 | 0.00 | 69 | 1015.6 |
| 20260902073741 | 60 | 207 | 4.0 | 11.0 | 0.00 | 0.00 | 0.00 | 66 | 1015.9 |
| 20260902073236 | 61 | 172 | 6.0 | 24.0 | 0.00 | 0.00 | 0.00 | 64 | 1015.7 |
| 20260902072732 | 61 | 151 | 2.0 | 5.0 | 0.00 | 0.00 | 0.00 | 63 | 1015.3 |
| 20260902072228 | 59 | 100 | 2.0 | 3.0 | 0.00 | 0.00 | 0.00 | 66 | 1015.1 |
| 20260902071724 | 59 | 29 | 3.0 | 6.0 | 0.00 | 0.00 | 0.00 | 67 | 1015.0 |
| 20260902071219 | 57 | 98 | 2.0 | 3.0 | 0.00 | 0.00 | 0.00 | 71 | 1015.0 |
| 20260902070716 | 55 | 36 | 3.0 | 3.0 | 0.00 | 0.00 | 0.00 | 74 | 1015.1 |
| 20260902070215 | 55 | 135 | 2.0 | 4.0 | 0.00 | 0.00 | 0.00 | 74 | 1015.3 |
| 20260902065714 | 55 | 86 | 2.0 | 5.0 | 0.00 | 0.00 | 0.00 | 74 | 1015.3 |
| 20260902065210 | 57 | 57 | 2.0 | 2.0 | 0.00 | 0.00 | 0.00 | 71 | 1015.3 |
| 20260902064705 | 58 | 90 | 1.0 | 4.0 | 0.00 | 0.00 | 0.00 | 68 | 1015.5 |
| 20260902064200 | 60 | 30 | 2.0 | 3.0 | 0.00 | 0.00 | 0.00 | 66 | 1015.3 |
| 20260902063655 | 62 | 105 | 1.0 | 3.0 | 0.00 | 0.00 | 0.00 | 61 | 1015.5 |
| 20260902063150 | 62 | 115 | 2.0 | 5.0 | 0.00 | 0.00 | 0.00 | 61 | 1015.6 |
| 20260902062650 | 62 | 139 | 0.0 | 4.0 | 0.00 | 0.00 | 0.00 | 61 | 1015.5 |
| 20260902062145 | 62 | 141 | 5.0 | 8.0 | 0.00 | 0.00 | 0.00 | 61 | 1015.6 |
| 20260902061644 | 62 | 109 | 1.0 | 6.0 | 0.00 | 0.00 | 0.00 | 62 | 1015.6 |
| 20260902061140 | 62 | 132 | 7.0 | 7.0 | 0.00 | 0.00 | 0.00 | 61 | 1015.7 |
| 20260902060636 | 62 | 99 | 2.0 | 8.0 | 0.00 | 0.00 | 0.00 | 61 | 1015.9 |
| 20260902060132 | 62 | 127 | 2.0 | 8.0 | 0.00 | 0.00 | 0.00 | 62 | 1015.9 |
| 20260902055628 | 62 | 144 | 5.0 | 8.0 | 0.00 | 0.42 | 0.42 | 61 | 1015.9 |
| 20260902055123 | 62 | 122 | 3.0 | 6.0 | 0.00 | 0.42 | 0.42 | 62 | 1016.0 |
| 20260902054618 | 62 | 196 | 2.0 | 6.0 | 0.00 | 0.42 | 0.42 | 61 | 1016.0 |
| 20260902054114 | 62 | 134 | 5.0 | 11.0 | 0.00 | 0.42 | 0.42 | 61 | 1016.1 |
| 20260902053609 | 62 | 172 | 2.0 | 9.0 | 0.00 | 0.42 | 0.42 | 61 | 1016.1 |
| 20260902053109 | 62 | 151 | 0.0 | 11.0 | 0.00 | 0.42 | 0.42 | 61 | 1016.1 |
| 20260902052603 | 62 | 137 | 6.0 | 10.0 | 0.00 | 0.42 | 0.42 | 61 | 1016.1 |
| 20260902052059 | 61 | 146 | 4.0 | 5.0 | 0.00 | 0.42 | 0.42 | 63 | 1016.1 |
| 20260902051558 | 61 | 152 | 2.0 | 6.0 | 0.00 | 0.42 | 0.42 | 62 | 1016.2 |
| 20260902051057 | 61 | 145 | 1.0 | 5.0 | 0.00 | 0.42 | 0.42 | 62 | 1016.2 |
| 20260902050552 | 62 | 95 | 2.0 | 4.0 | 0.00 | 0.42 | 0.42 | 61 | 1016.1 |
| 20260902050048 | 62 | 90 | 2.0 | 6.0 | 0.00 | 0.42 | 0.42 | 61 | 1016.2 |
| 20260902045543 | 61 | 128 | 2.0 | 5.0 | 0.00 | 0.42 | 0.42 | 62 | 1016.1 |
| 20260902045039 | 61 | 140 | 3.0 | 5.0 | 0.00 | 0.42 | 0.42 | 62 | 1016.1 |
| 20260902044533 | 61 | 104 | 3.0 | 3.0 | 0.00 | 0.42 | 0.42 | 63 | 1016.2 |
| 20260902044029 | 61 | 112 | 3.0 | 5.0 | 0.00 | 0.42 | 0.42 | 63 | 1016.1 |
| 20260902043524 | 61 | 102 | 3.0 | 4.0 | 0.00 | 0.42 | 0.42 | 63 | 1016.1 |
| 20260902043019 | 62 | 125 | 2.0 | 6.0 | 0.00 | 0.42 | 0.42 | 62 | 1016.1 |
| 20260902042518 | 61 | 117 | 4.0 | 5.0 | 0.00 | 0.42 | 0.42 | 63 | 1016.2 |
| 20260902042014 | 62 | 90 | 2.0 | 4.0 | 0.00 | 0.42 | 0.42 | 62 | 1016.4 |
| 20260902041508 | 62 | 133 | 3.0 | 6.0 | 0.00 | 0.42 | 0.42 | 62 | 1016.4 |
| 20260902041002 | 62 | 133 | 3.0 | 8.0 | 0.00 | 0.42 | 0.42 | 62 | 1016.2 |
| 20260902040457 | 61 | 117 | 3.0 | 7.0 | 0.00 | 0.42 | 0.42 | 64 | 1016.5 |
| 20260902035956 | 58 | 105 | 3.0 | 5.0 | 0.00 | 0.42 | 0.42 | 72 | 1016.4 |
| 20260902035450 | 59 | 5 | 3.0 | 3.0 | 0.00 | 0.42 | 0.42 | 72 | 1016.2 |
| 20260902034945 | 62 | 109 | 2.0 | 5.0 | 0.00 | 0.42 | 0.42 | 63 | 1016.2 |
| 20260902034439 | 61 | 141 | 2.0 | 5.0 | 0.00 | 0.42 | 0.42 | 64 | 1016.4 |
| 20260902033938 | 61 | 140 | 5.0 | 5.0 | 0.00 | 0.42 | 0.42 | 66 | 1016.2 |